New Home, Texas
Current Conditions -  °F | °C
As of 6:53 AM on Wednesday 22 Oct 2014 (Local Time) from KLBB Reporting Station
Moderate Rain Moderate Rain  
Wind Chill: 60°   Ceiling: 4100
Heat Index: 60°   Visibility: 2.5mi
Dew Point: 58°   Wind: 5mph
Humidity: 93%   Direction: 180°S
Pressure: 30.11"   Gusts: NA
Location:  33.33°N, 101.91°W
Report Text: KLBB 221153Z 18004KT 2 1/2SM RA BR FEW030 BKN041 OVC060 16/14 A3011 RMK AO2 SLP159 P0010 60010 70010 T01560144 10178 20156 53007
Loading
Personal Weather Stations






























Interactive Weather Map
Tropical Storm Tracking
New forecast layout! Learn more

10-Day Weather Forecast

Advertisements
Track Severe Weather on mobile